Mega Smeralda — ICIU — position and weather

sailwx.info

Track history (hours):
 
Tides and Currents Weather Stations Pressure Air Temp Water Temp Dewpoint Dewpoint Depression Visibility Wind Speed Wind Dir Waves Ship Positions

Mega Smeralda

Last reported at 2017-Mar-20 15:30 UTC. Time now 2017-Mar-28 02:31 UTC.
Position N 44°24' E 008°55'.

Length 171 m; draft 6.5 m.

Type: Passenger vessel. MMSI: 247228600.

Date/timePositionNaut miles runAvg speedWind from/ knotsBaromVisibWave heightAir tempDewpointWater temp
2017-Mar-20 15:30N 44°24' E 008°55'0 0.0
2017-Mar-20 14:33N 44°24' E 008°55'0 0.0
2017-Mar-20 13:27N 44°24' E 008°55'0 0.0
2017-Mar-20 12:30N 44°24' E 008°55'0 0.0
2017-Mar-20 11:30N 44°24' E 008°55'0 0.0
2017-Mar-20 10:30N 44°24' E 008°55'0 0.0
2017-Mar-20 09:30N 44°24' E 008°55'0 0.0
2017-Mar-20 08:33N 44°24' E 008°55'0 0.0
2017-Mar-20 07:33N 44°24' E 008°55'0 0.0
2017-Mar-20 06:33N 44°24' E 008°55'0 0.0
2017-Mar-20 05:33N 44°24' E 008°55'0 0.0
2017-Mar-20 04:33N 44°24' E 008°55'0 0.0
2017-Mar-20 03:33N 44°24' E 008°55'0 0.0
2017-Mar-20 02:33N 44°24' E 008°55'0 0.0
2017-Mar-20 01:30N 44°24' E 008°55'0 0.0
2017-Mar-20 00:30N 44°24' E 008°55'0 0.0
2017-Mar-19 23:30N 44°24' E 008°55'0 0.0
2017-Mar-19 22:30N 44°24' E 008°55'0 0.0
2017-Mar-19 21:30N 44°24' E 008°55'0 0.0
2017-Mar-19 20:30N 44°24' E 008°55'0 0.0
2017-Mar-19 19:27N 44°24' E 008°55'0 0.0
2017-Mar-19 18:33N 44°24' E 008°55'0 0.0
2017-Mar-19 17:33N 44°24' E 008°55'0 0.0
2017-Mar-19 16:33N 44°24' E 008°55'0 0.0
2017-Mar-19 15:33N 44°24' E 008°55'0 0.0
2017-Mar-19 14:33N 44°24' E 008°55'0 0.0
2017-Mar-19 13:33N 44°24' E 008°55'0 0.0
2017-Mar-19 12:33N 44°24' E 008°55'0 0.0
2017-Mar-19 11:24N 44°24' E 008°55'0 0.0
2017-Mar-19 10:24N 44°24' E 008°55'0 0.0
2017-Mar-19 09:27N 44°24' E 008°55'0 0.0
2017-Mar-19 08:30N 44°24' E 008°55'0 0.0
2017-Mar-19 07:27N 44°24' E 008°55'0 0.0
2017-Mar-19 06:30N 44°24' E 008°55'0 0.0
2017-Mar-19 05:27N 44°24' E 008°55'0 0.0
2017-Mar-19 04:27N 44°24' E 008°55'0 0.0
2017-Mar-19 03:33N 44°24' E 008°55'0 0.0
2017-Mar-19 02:33N 44°24' E 008°55'0 0.0
2017-Mar-19 01:33N 44°24' E 008°55'0 0.0
2017-Mar-19 00:33N 44°24' E 008°55'0 0.0
2017-Mar-18 23:33N 44°24' E 008°55'0 0.0
2017-Mar-18 22:33N 44°24' E 008°55'0 0.0
2017-Mar-18 21:33N 44°24' E 008°55'0 0.0
2017-Mar-18 20:24N 44°24' E 008°55'0 0.0
2017-Mar-18 19:27N 44°24' E 008°55'0 0.0
2017-Mar-18 18:30N 44°24' E 008°55'3 3.7
2017-Mar-18 17:33N 44°21' E 008°58'1716.8
2017-Mar-18 16:33N 44°10' E 008°41'3919.0
2017-Mar-18 14:29N 43°46' E 007°58'1818.9
2017-Mar-18 13:32N 43°35' E 007°38'1919.1
2017-Mar-18 12:34N 43°24' E 007°17'6215.5
2017-Mar-18 08:33N 43°07' E 005°56'0 0.0
2017-Mar-18 07:33N 43°07' E 005°56'0 0.0
2017-Mar-18 06:33N 43°07' E 005°56'4213.9
2017-Mar-18 03:33N 42°58' E 006°52'2019.7
2017-Mar-18 02:33N 42°60' E 007°19'1919.2
2017-Mar-18 01:33N 43°01' E 007°45'5818.1
2017-Mar-17 22:21N 43°04' E 009°04'1517.7
2017-Mar-17 21:29N 43°04' E 009°25'1717.4
2017-Mar-17 20:32N 42°49' E 009°35'4 1.7
2017-Mar-17 18:13N 42°50' E 009°40'1319.5
2017-Mar-17 17:33N 42°58' E 009°55'1919.2
2017-Mar-17 16:33N 43°15' E 010°05'1817.9
2017-Mar-17 15:33N 43°32' E 010°15'3 2.8
2017-Mar-17 14:33N 43°33' E 010°18'0 0.0
2017-Mar-17 13:33N 43°33' E 010°18'0 0.0
2017-Mar-17 12:33N 43°33' E 010°18'0 0.1
2017-Mar-17 11:33N 43°33' E 010°18'1212.0
2017-Mar-17 10:33N 43°22' E 010°10'1716.6
2017-Mar-17 09:33N 43°07' E 010°02'1616.1
2017-Mar-17 08:33N 42°54' E 009°50'12 3.6
2017-Mar-17 05:21N 42°50' E 009°35'1916.2
2017-Mar-17 04:12N 43°05' E 009°20'1219.3
2017-Mar-17 03:34N 43°04' E 009°03'1919.0
2017-Mar-17 02:33N 43°02' E 008°37'1918.9
2017-Mar-17 01:33N 43°01' E 008°11'1919.0
2017-Mar-17 00:34N 42°60' E 007°45'1919.3
2017-Mar-16 23:33N 42°59' E 007°19'1918.7
2017-Mar-16 22:34N 42°58' E 006°54'1918.7
2017-Mar-16 21:33N 42°57' E 006°28'1818.1
2017-Mar-16 20:33N 43°00' E 006°04'9 8.4
2017-Mar-16 19:31N 43°07' E 005°56'0 0.0
2017-Mar-16 18:31N 43°07' E 005°56'0 0.0
2017-Mar-16 17:31N 43°07' E 005°56'0 0.0
2017-Mar-16 16:31N 43°07' E 005°56'0 0.0
2017-Mar-16 15:31N 43°07' E 005°56'0 0.0
2017-Mar-16 14:31N 43°07' E 005°56'0 0.0
2017-Mar-16 13:31N 43°07' E 005°56'0 0.0
2017-Mar-16 12:31N 43°07' E 005°56'0 0.0
2017-Mar-16 11:31N 43°07' E 005°56'0 0.0
2017-Mar-16 10:31N 43°07' E 005°56'0 0.0
2017-Mar-16 09:31N 43°07' E 005°56'0 0.0
2017-Mar-16 08:31N 43°07' E 005°56'0 0.0
2017-Mar-16 07:31N 43°07' E 005°56'0 0.0
2017-Mar-16 06:31N 43°07' E 005°56'5 4.8
2017-Mar-16 05:33N 43°03' E 005°59'1615.9
2017-Mar-16 04:33N 42°57' E 006°19'1716.7
2017-Mar-16 03:33N 42°58' E 006°42'1717.0
2017-Mar-16 02:33N 42°59' E 007°05'1717.3
2017-Mar-16 01:33N 43°00' E 007°29'1717.1
2017-Mar-16 00:33N 43°01' E 007°52'1717.0
2017-Mar-15 23:33N 43°02' E 008°15'1717.0
2017-Mar-15 22:33N 43°02' E 008°39'1716.9
2017-Mar-15 21:33N 43°03' E 009°02'1717.0
2017-Mar-15 20:33N 43°04' E 009°25'1615.7
2017-Mar-15 19:33N 42°50' E 009°34'4 0.3
2017-Mar-15 05:34N 42°46' E 009°33'1916.9
2017-Mar-15 04:25N 43°04' E 009°26'1719.4
2017-Mar-15 03:33N 43°03' E 009°03'1919.3
2017-Mar-15 02:33N 43°03' E 008°36'1919.2
2017-Mar-15 01:33N 43°02' E 008°10'1918.9
2017-Mar-15 00:33N 43°00' E 007°44'1919.1
2017-Mar-14 23:34N 42°59' E 007°18'1918.9
2017-Mar-14 22:33N 42°58' E 006°52'4018.1
2017-Mar-14 20:20N 43°04' E 005°58'3 4.3
2017-Mar-14 19:33N 43°07' E 005°56'0 0.0
2017-Mar-14 18:34N 43°07' E 005°56'0 0.0
2017-Mar-14 17:33N 43°07' E 005°56'0 0.0
2017-Mar-14 16:33N 43°07' E 005°56'0 0.0
2017-Mar-14 15:33N 43°07' E 005°56'0 0.0
2017-Mar-14 14:33N 43°07' E 005°56'0 0.0
2017-Mar-14 13:33N 43°07' E 005°56'0 0.0
2017-Mar-14 12:34N 43°07' E 005°56'0 0.0
2017-Mar-14 11:33N 43°07' E 005°56'0 0.0
2017-Mar-14 10:33N 43°07' E 005°56'0 0.0
2017-Mar-14 09:33N 43°07' E 005°56'0 0.0
2017-Mar-14 08:33N 43°07' E 005°56'0 0.0
2017-Mar-14 07:34N 43°07' E 005°56'0 0.0
2017-Mar-14 06:33N 43°07' E 005°56'3911.9
2017-Mar-14 03:17N 42°58' E 006°48'1417.1
2017-Mar-14 02:29N 42°59' E 007°06'1617.4
2017-Mar-14 01:33N 43°00' E 007°28'1817.1
2017-Mar-14 00:31N 43°01' E 007°53'2217.0
2017-Mar-13 23:14N 43°02' E 008°22'1316.7
2017-Mar-13 22:26N 43°02' E 008°41'1516.6
2017-Mar-13 21:31N 43°03' E 009°02'1717.0
2017-Mar-13 20:33N 43°05' E 009°24'23 7.0
2017-Mar-13 17:18N 42°42' E 009°28'1517.5
2017-Mar-13 16:26N 42°51' E 009°44'1718.7
2017-Mar-13 15:33N 43°03' E 009°59'1919.0
2017-Mar-13 14:34N 43°21' E 010°07'1414.0
2017-Mar-13 13:33N 43°33' E 010°18'0 0.1
2017-Mar-13 12:32N 43°33' E 010°18'0 0.0
2017-Mar-13 11:33N 43°33' E 010°18'1211.7
2017-Mar-13 10:33N 43°23' E 010°09'1615.8
2017-Mar-13 09:33N 43°09' E 010°02'1615.2
2017-Mar-13 08:30N 42°55' E 009°51'17013.9
2017-Mar-12 20:15N 43°04' E 005°58'3 4.3
2017-Mar-12 19:34N 43°07' E 005°56'0 0.0
2017-Mar-12 18:33N 43°07' E 005°56'0 0.0
2017-Mar-12 17:33N 43°07' E 005°56'0 0.0
2017-Mar-12 16:33N 43°07' E 005°56'0 0.0
2017-Mar-12 15:33N 43°07' E 005°56'0 0.0
2017-Mar-12 14:33N 43°07' E 005°56'0 0.0
2017-Mar-12 13:33N 43°07' E 005°56'0 0.0
2017-Mar-12 12:33N 43°07' E 005°56'0 0.0
2017-Mar-12 11:33N 43°07' E 005°56'0 0.0
2017-Mar-12 10:33N 43°07' E 005°56'0 0.0
2017-Mar-12 09:33N 43°07' E 005°56'0 0.0
2017-Mar-12 08:33N 43°07' E 005°56'0 0.0
2017-Mar-12 07:33N 43°07' E 005°56'0 0.0
2017-Mar-12 06:33N 43°07' E 005°56'2210.1
2017-Mar-12 04:24N 42°57' E 006°23'1716.8
2017-Mar-12 03:22N 42°58' E 006°46'1417.0
2017-Mar-12 02:31N 42°59' E 007°06'1617.1
2017-Mar-12 01:33N 42°60' E 007°28'1716.9
2017-Mar-12 00:33N 43°01' E 007°52'1716.8
2017-Mar-11 23:33N 43°01' E 008°15'1717.0
2017-Mar-11 22:33N 43°02' E 008°38'1717.1
2017-Mar-11 21:33N 43°03' E 009°01'1716.8
2017-Mar-11 20:33N 43°04' E 009°24'1615.1
2017-Mar-11 19:31N 42°50' E 009°34'5 1.6
2017-Mar-11 16:33N 42°49' E 009°41'1716.7
2017-Mar-11 15:34N 42°60' E 009°58'1716.9
2017-Mar-11 14:34N 43°16' E 010°05'1616.2
2017-Mar-11 13:33N 43°31' E 010°13'4 4.0
2017-Mar-11 12:33N 43°33' E 010°18'0 0.0
2017-Mar-11 11:33N 43°33' E 010°18'1211.6
2017-Mar-11 10:33N 43°23' E 010°10'1615.9
2017-Mar-11 09:33N 43°08' E 010°03'1515.4
2017-Mar-11 08:33N 42°55' E 009°51'20 4.9
2017-Mar-11 04:29N 43°04' E 009°27'1718.8
2017-Mar-11 03:34N 43°04' E 009°03'1919.2
2017-Mar-11 02:34N 43°03' E 008°37'1919.1
2017-Mar-11 01:33N 43°01' E 008°11'9718.7
2017-Mar-10 20:21N 43°04' E 005°58'3 3.7
2017-Mar-10 19:32N 43°07' E 005°56'0 0.0
2017-Mar-10 18:32N 43°07' E 005°56'0 0.0
2017-Mar-10 17:31N 43°07' E 005°56'0 0.0
2017-Mar-10 16:31N 43°07' E 005°56'0 0.0
2017-Mar-10 15:31N 43°07' E 005°56'  
Track history (hours):
 
Tides and Currents Weather Stations Pressure Air Temp Water Temp Dewpoint Dewpoint Depression Visibility Wind Speed Wind Dir Waves Ship Positions

Mega Smeralda

Last reported at 2017-Mar-20 15:30 UTC. Time now 2017-Mar-28 02:31 UTC.
Position N 44°24' E 008°55'.

Length 171 m; draft 6.5 m.

Type: Passenger vessel. MMSI: 247228600.

Date/timePositionNaut miles runAvg speedWind from/ knotsBaromVisibWave heightAir tempDewpointWater temp
2017-Mar-20 15:30N 44°24' E 008°55'0 0.0
2017-Mar-20 14:33N 44°24' E 008°55'0 0.0
2017-Mar-20 13:27N 44°24' E 008°55'0 0.0
2017-Mar-20 12:30N 44°24' E 008°55'0 0.0
2017-Mar-20 11:30N 44°24' E 008°55'0 0.0
2017-Mar-20 10:30N 44°24' E 008°55'0 0.0
2017-Mar-20 09:30N 44°24' E 008°55'0 0.0
2017-Mar-20 08:33N 44°24' E 008°55'0 0.0
2017-Mar-20 07:33N 44°24' E 008°55'0 0.0
2017-Mar-20 06:33N 44°24' E 008°55'0 0.0
2017-Mar-20 05:33N 44°24' E 008°55'0 0.0
2017-Mar-20 04:33N 44°24' E 008°55'0 0.0
2017-Mar-20 03:33N 44°24' E 008°55'0 0.0
2017-Mar-20 02:33N 44°24' E 008°55'0 0.0
2017-Mar-20 01:30N 44°24' E 008°55'0 0.0
2017-Mar-20 00:30N 44°24' E 008°55'0 0.0
2017-Mar-19 23:30N 44°24' E 008°55'0 0.0
2017-Mar-19 22:30N 44°24' E 008°55'0 0.0
2017-Mar-19 21:30N 44°24' E 008°55'0 0.0
2017-Mar-19 20:30N 44°24' E 008°55'0 0.0
2017-Mar-19 19:27N 44°24' E 008°55'0 0.0
2017-Mar-19 18:33N 44°24' E 008°55'0 0.0
2017-Mar-19 17:33N 44°24' E 008°55'0 0.0
2017-Mar-19 16:33N 44°24' E 008°55'0 0.0
2017-Mar-19 15:33N 44°24' E 008°55'0 0.0
2017-Mar-19 14:33N 44°24' E 008°55'0 0.0
2017-Mar-19 13:33N 44°24' E 008°55'0 0.0
2017-Mar-19 12:33N 44°24' E 008°55'0 0.0
2017-Mar-19 11:24N 44°24' E 008°55'0 0.0
2017-Mar-19 10:24N 44°24' E 008°55'0 0.0
2017-Mar-19 09:27N 44°24' E 008°55'0 0.0
2017-Mar-19 08:30N 44°24' E 008°55'0 0.0
2017-Mar-19 07:27N 44°24' E 008°55'0 0.0
2017-Mar-19 06:30N 44°24' E 008°55'0 0.0
2017-Mar-19 05:27N 44°24' E 008°55'0 0.0
2017-Mar-19 04:27N 44°24' E 008°55'0 0.0
2017-Mar-19 03:33N 44°24' E 008°55'0 0.0
2017-Mar-19 02:33N 44°24' E 008°55'0 0.0
2017-Mar-19 01:33N 44°24' E 008°55'0 0.0
2017-Mar-19 00:33N 44°24' E 008°55'0 0.0
2017-Mar-18 23:33N 44°24' E 008°55'0 0.0
2017-Mar-18 22:33N 44°24' E 008°55'0 0.0
2017-Mar-18 21:33N 44°24' E 008°55'0 0.0
2017-Mar-18 20:24N 44°24' E 008°55'0 0.0
2017-Mar-18 19:27N 44°24' E 008°55'0 0.0
2017-Mar-18 18:30N 44°24' E 008°55'3 3.7
2017-Mar-18 17:33N 44°21' E 008°58'1716.8
2017-Mar-18 16:33N 44°10' E 008°41'3919.0
2017-Mar-18 14:29N 43°46' E 007°58'1818.9
2017-Mar-18 13:32N 43°35' E 007°38'1919.1
2017-Mar-18 12:34N 43°24' E 007°17'6215.5
2017-Mar-18 08:33N 43°07' E 005°56'0 0.0
2017-Mar-18 07:33N 43°07' E 005°56'0 0.0
2017-Mar-18 06:33N 43°07' E 005°56'4213.9
2017-Mar-18 03:33N 42°58' E 006°52'2019.7
2017-Mar-18 02:33N 42°60' E 007°19'1919.2
2017-Mar-18 01:33N 43°01' E 007°45'5818.1
2017-Mar-17 22:21N 43°04' E 009°04'1517.7
2017-Mar-17 21:29N 43°04' E 009°25'1717.4
2017-Mar-17 20:32N 42°49' E 009°35'4 1.7
2017-Mar-17 18:13N 42°50' E 009°40'1319.5
2017-Mar-17 17:33N 42°58' E 009°55'1919.2
2017-Mar-17 16:33N 43°15' E 010°05'1817.9
2017-Mar-17 15:33N 43°32' E 010°15'3 2.8
2017-Mar-17 14:33N 43°33' E 010°18'0 0.0
2017-Mar-17 13:33N 43°33' E 010°18'0 0.0
2017-Mar-17 12:33N 43°33' E 010°18'0 0.1
2017-Mar-17 11:33N 43°33' E 010°18'1212.0
2017-Mar-17 10:33N 43°22' E 010°10'1716.6
2017-Mar-17 09:33N 43°07' E 010°02'1616.1
2017-Mar-17 08:33N 42°54' E 009°50'12 3.6
2017-Mar-17 05:21N 42°50' E 009°35'1916.2
2017-Mar-17 04:12N 43°05' E 009°20'1219.3
2017-Mar-17 03:34N 43°04' E 009°03'1919.0
2017-Mar-17 02:33N 43°02' E 008°37'1918.9
2017-Mar-17 01:33N 43°01' E 008°11'1919.0
2017-Mar-17 00:34N 42°60' E 007°45'1919.3
2017-Mar-16 23:33N 42°59' E 007°19'1918.7
2017-Mar-16 22:34N 42°58' E 006°54'1918.7
2017-Mar-16 21:33N 42°57' E 006°28'1818.1
2017-Mar-16 20:33N 43°00' E 006°04'9 8.4
2017-Mar-16 19:31N 43°07' E 005°56'0 0.0
2017-Mar-16 18:31N 43°07' E 005°56'0 0.0
2017-Mar-16 17:31N 43°07' E 005°56'0 0.0
2017-Mar-16 16:31N 43°07' E 005°56'0 0.0
2017-Mar-16 15:31N 43°07' E 005°56'0 0.0
2017-Mar-16 14:31N 43°07' E 005°56'0 0.0
2017-Mar-16 13:31N 43°07' E 005°56'0 0.0
2017-Mar-16 12:31N 43°07' E 005°56'0 0.0
2017-Mar-16 11:31N 43°07' E 005°56'0 0.0
2017-Mar-16 10:31N 43°07' E 005°56'0 0.0
2017-Mar-16 09:31N 43°07' E 005°56'0 0.0
2017-Mar-16 08:31N 43°07' E 005°56'0 0.0
2017-Mar-16 07:31N 43°07' E 005°56'0 0.0
2017-Mar-16 06:31N 43°07' E 005°56'5 4.8
2017-Mar-16 05:33N 43°03' E 005°59'1615.9
2017-Mar-16 04:33N 42°57' E 006°19'1716.7
2017-Mar-16 03:33N 42°58' E 006°42'1717.0
2017-Mar-16 02:33N 42°59' E 007°05'1717.3
2017-Mar-16 01:33N 43°00' E 007°29'1717.1
2017-Mar-16 00:33N 43°01' E 007°52'1717.0
2017-Mar-15 23:33N 43°02' E 008°15'1717.0
2017-Mar-15 22:33N 43°02' E 008°39'1716.9
2017-Mar-15 21:33N 43°03' E 009°02'1717.0
2017-Mar-15 20:33N 43°04' E 009°25'1615.7
2017-Mar-15 19:33N 42°50' E 009°34'4 0.3
2017-Mar-15 05:34N 42°46' E 009°33'1916.9
2017-Mar-15 04:25N 43°04' E 009°26'1719.4
2017-Mar-15 03:33N 43°03' E 009°03'1919.3
2017-Mar-15 02:33N 43°03' E 008°36'1919.2
2017-Mar-15 01:33N 43°02' E 008°10'1918.9
2017-Mar-15 00:33N 43°00' E 007°44'1919.1
2017-Mar-14 23:34N 42°59' E 007°18'1918.9
2017-Mar-14 22:33N 42°58' E 006°52'4018.1
2017-Mar-14 20:20N 43°04' E 005°58'3 4.3
2017-Mar-14 19:33N 43°07' E 005°56'0 0.0
2017-Mar-14 18:34N 43°07' E 005°56'0 0.0
2017-Mar-14 17:33N 43°07' E 005°56'0 0.0
2017-Mar-14 16:33N 43°07' E 005°56'0 0.0
2017-Mar-14 15:33N 43°07' E 005°56'0 0.0
2017-Mar-14 14:33N 43°07' E 005°56'0 0.0
2017-Mar-14 13:33N 43°07' E 005°56'0 0.0
2017-Mar-14 12:34N 43°07' E 005°56'0 0.0
2017-Mar-14 11:33N 43°07' E 005°56'0 0.0
2017-Mar-14 10:33N 43°07' E 005°56'0 0.0
2017-Mar-14 09:33N 43°07' E 005°56'0 0.0
2017-Mar-14 08:33N 43°07' E 005°56'0 0.0
2017-Mar-14 07:34N 43°07' E 005°56'0 0.0
2017-Mar-14 06:33N 43°07' E 005°56'3911.9
2017-Mar-14 03:17N 42°58' E 006°48'1417.1
2017-Mar-14 02:29N 42°59' E 007°06'1617.4
2017-Mar-14 01:33N 43°00' E 007°28'1817.1
2017-Mar-14 00:31N 43°01' E 007°53'2217.0
2017-Mar-13 23:14N 43°02' E 008°22'1316.7
2017-Mar-13 22:26N 43°02' E 008°41'1516.6
2017-Mar-13 21:31N 43°03' E 009°02'1717.0
2017-Mar-13 20:33N 43°05' E 009°24'23 7.0
2017-Mar-13 17:18N 42°42' E 009°28'1517.5
2017-Mar-13 16:26N 42°51' E 009°44'1718.7
2017-Mar-13 15:33N 43°03' E 009°59'1919.0
2017-Mar-13 14:34N 43°21' E 010°07'1414.0
2017-Mar-13 13:33N 43°33' E 010°18'0 0.1
2017-Mar-13 12:32N 43°33' E 010°18'0 0.0
2017-Mar-13 11:33N 43°33' E 010°18'1211.7
2017-Mar-13 10:33N 43°23' E 010°09'1615.8
2017-Mar-13 09:33N 43°09' E 010°02'1615.2
2017-Mar-13 08:30N 42°55' E 009°51'17013.9
2017-Mar-12 20:15N 43°04' E 005°58'3 4.3
2017-Mar-12 19:34N 43°07' E 005°56'0 0.0
2017-Mar-12 18:33N 43°07' E 005°56'0 0.0
2017-Mar-12 17:33N 43°07' E 005°56'0 0.0
2017-Mar-12 16:33N 43°07' E 005°56'0 0.0
2017-Mar-12 15:33N 43°07' E 005°56'0 0.0
2017-Mar-12 14:33N 43°07' E 005°56'0 0.0
2017-Mar-12 13:33N 43°07' E 005°56'0 0.0
2017-Mar-12 12:33N 43°07' E 005°56'0 0.0
2017-Mar-12 11:33N 43°07' E 005°56'0 0.0
2017-Mar-12 10:33N 43°07' E 005°56'0 0.0
2017-Mar-12 09:33N 43°07' E 005°56'0 0.0
2017-Mar-12 08:33N 43°07' E 005°56'0 0.0
2017-Mar-12 07:33N 43°07' E 005°56'0 0.0
2017-Mar-12 06:33N 43°07' E 005°56'2210.1
2017-Mar-12 04:24N 42°57' E 006°23'1716.8
2017-Mar-12 03:22N 42°58' E 006°46'1417.0
2017-Mar-12 02:31N 42°59' E 007°06'1617.1
2017-Mar-12 01:33N 42°60' E 007°28'1716.9
2017-Mar-12 00:33N 43°01' E 007°52'1716.8
2017-Mar-11 23:33N 43°01' E 008°15'1717.0
2017-Mar-11 22:33N 43°02' E 008°38'1717.1
2017-Mar-11 21:33N 43°03' E 009°01'1716.8
2017-Mar-11 20:33N 43°04' E 009°24'1615.1
2017-Mar-11 19:31N 42°50' E 009°34'5 1.6
2017-Mar-11 16:33N 42°49' E 009°41'1716.7
2017-Mar-11 15:34N 42°60' E 009°58'1716.9
2017-Mar-11 14:34N 43°16' E 010°05'1616.2
2017-Mar-11 13:33N 43°31' E 010°13'4 4.0
2017-Mar-11 12:33N 43°33' E 010°18'0 0.0
2017-Mar-11 11:33N 43°33' E 010°18'1211.6
2017-Mar-11 10:33N 43°23' E 010°10'1615.9
2017-Mar-11 09:33N 43°08' E 010°03'1515.4
2017-Mar-11 08:33N 42°55' E 009°51'20 4.9
2017-Mar-11 04:29N 43°04' E 009°27'1718.8
2017-Mar-11 03:34N 43°04' E 009°03'1919.2
2017-Mar-11 02:34N 43°03' E 008°37'1919.1
2017-Mar-11 01:33N 43°01' E 008°11'9718.7
2017-Mar-10 20:21N 43°04' E 005°58'3 3.7
2017-Mar-10 19:32N 43°07' E 005°56'0 0.0
2017-Mar-10 18:32N 43°07' E 005°56'0 0.0
2017-Mar-10 17:31N 43°07' E 005°56'0 0.0
2017-Mar-10 16:31N 43°07' E 005°56'0 0.0
2017-Mar-10 15:31N 43°07' E 005°56'  

Dump ship's entire track history